Time;durP1;ratioP1;P1;durP2;ratioP2;P2;SDS_P1;SDS_P2;PMS_P1;PMS_P2;Temp;Humidity;BMP_temperature;BMP_pressure;BME280_temperature;BME280_humidity;BME280_pressure;Samples;Min_cycle;Max_cycle;Signal;HPM_P1;HPM_P2
2023/06/28 14:05:06;;;;;;;4.25;1.55;;;;;;;23.30;52.42;101669.00;5063930;28;20410;-62
2023/06/28 14:08:49;;;;;;;5.75;1.80;;;;;;;23.10;52.97;101663.22;5062801;28;20399;-65
2023/06/28 14:11:15;;;;;;;6.30;2.30;;;;;;;22.89;53.36;101667.81;5069450;28;20040;-65
2023/06/28 14:13:41;;;;;;;9.05;2.33;;;;;;;22.78;53.88;101669.31;5063599;28;20123;-65
2023/06/28 14:16:06;;;;;;;7.95;2.30;;;;;;;22.76;53.59;101675.13;5065968;28;20117;-65
2023/06/28 14:18:32;;;;;;;8.98;2.13;;;;;;;22.75;53.52;101673.50;5065545;28;20032;-65
2023/06/28 14:20:58;;;;;;;6.05;1.80;;;;;;;22.81;53.07;101674.13;5061858;28;20554;-65
2023/06/28 14:23:23;;;;;;;8.38;2.05;;;;;;;22.80;53.36;101667.84;5059222;28;20132;-65
2023/06/28 14:25:49;;;;;;;7.95;2.10;;;;;;;22.85;53.19;101664.16;5061921;28;20573;-65
2023/06/28 14:28:14;;;;;;;13.30;2.20;;;;;;;22.86;53.50;101674.75;5058117;28;20061;-65
2023/06/28 14:30:40;;;;;;;6.75;1.90;;;;;;;22.89;53.15;101665.09;5066156;28;20036;-65
2023/06/28 14:33:06;;;;;;;11.88;1.85;;;;;;;22.89;53.40;101673.28;5053800;28;20040;-65
2023/06/28 14:35:32;;;;;;;9.50;2.30;;;;;;;22.87;53.33;101665.44;5061691;28;20028;-65
2023/06/28 14:38:02;;;;;;;11.32;2.33;;;;;;;22.87;53.29;101675.56;5056834;28;20064;-66
2023/06/28 14:40:28;;;;;;;6.95;2.53;;;;;;;22.83;53.49;101674.59;5062003;28;20032;-65
2023/06/28 14:42:54;;;;;;;7.53;1.80;;;;;;;22.84;53.41;101676.22;5065126;28;20621;-65
2023/06/28 14:45:19;;;;;;;10.73;1.92;;;;;;;22.86;53.54;101679.44;5055286;28;20606;-65
2023/06/28 14:47:45;;;;;;;6.00;2.00;;;;;;;22.87;53.33;101678.28;5059389;28;20029;-65
2023/06/28 14:50:11;;;;;;;9.23;1.98;;;;;;;22.84;53.66;101676.22;5059902;28;20059;-65
2023/06/28 14:52:37;;;;;;;6.05;1.70;;;;;;;22.82;54.00;101670.25;5057878;28;20033;-65
2023/06/28 14:55:03;;;;;;;8.77;2.38;;;;;;;22.81;53.67;101663.19;5058778;28;20032;-65
2023/06/28 14:57:29;;;;;;;9.48;2.25;;;;;;;22.81;54.12;101668.66;5059932;28;20036;-65
2023/06/28 14:59:56;;;;;;;4.95;1.67;;;;;;;22.79;54.13;101660.00;5065536;28;20033;-65
2023/06/28 15:02:21;;;;;;;6.78;2.38;;;;;;;22.78;54.23;101652.94;5063312;28;20498;-65
2023/06/28 15:04:47;;;;;;;7.97;2.30;;;;;;;22.79;53.63;101657.28;5076252;28;20036;-65
2023/06/28 15:07:13;;;;;;;3.40;1.52;;;;;;;22.79;53.98;101662.72;5057571;28;20028;-65
2023/06/28 15:09:38;;;;;;;8.55;1.70;;;;;;;22.79;53.83;101662.72;5056007;28;20039;-65
2023/06/28 15:12:05;;;;;;;4.20;2.17;;;;;;;22.79;53.85;101665.47;5064035;28;20124;-65
2023/06/28 15:14:36;;;;;;;7.10;2.10;;;;;;;22.80;53.97;101672.53;5067500;28;20059;-65
2023/06/28 15:17:02;;;;;;;10.48;1.83;;;;;;;22.79;53.93;101668.19;5059926;28;20025;-66
2023/06/28 15:19:27;;;;;;;5.60;1.60;;;;;;;22.79;54.09;101657.28;5057700;28;20527;-65
2023/06/28 15:21:53;;;;;;;5.90;1.80;;;;;;;22.80;53.93;101658.88;5049474;28;20093;-65
2023/06/28 15:24:18;;;;;;;4.45;2.13;;;;;;;22.78;54.33;101658.41;5047035;28;20400;-65
2023/06/28 15:26:44;;;;;;;6.72;2.15;;;;;;;22.77;54.02;101660.34;5047563;28;20033;-65
2023/06/28 15:29:11;;;;;;;6.30;2.00;;;;;;;22.77;54.03;101656.81;5046844;28;20086;-65
2023/06/28 15:31:36;;;;;;;5.13;1.90;;;;;;;22.77;54.32;101654.06;5048666;28;20040;-65
2023/06/28 15:34:02;;;;;;;8.95;1.63;;;;;;;22.75;54.42;101667.25;5040480;28;20400;-65
2023/06/28 15:36:28;;;;;;;8.13;2.38;;;;;;;22.76;54.12;101657.91;5037535;28;20480;-65
2023/06/28 15:38:54;;;;;;;;;;;;;;;22.75;54.38;101661.78;5040613;28;20037;-65
2023/06/28 15:41:19;;;;;;;7.47;2.17;;;;;;;22.75;54.12;101662.56;5039427;28;19912;-65
2023/06/28 15:43:45;;;;;;;3.35;1.60;;;;;;;22.74;54.48;101665.66;5047017;28;20404;-65
2023/06/28 15:46:13;;;;;;;;;;;;;;;22.73;54.46;101661.31;5040103;28;20094;-65
2023/06/28 15:48:39;;;;;;;4.70;1.70;;;;;;;22.72;54.62;101667.91;5041988;28;19956;-65
2023/06/28 15:51:04;;;;;;;6.88;1.85;;;;;;;22.71;54.36;101667.13;5038370;28;20052;-65
2023/06/28 15:53:30;;;;;;;5.72;1.73;;;;;;;22.71;54.33;101663.59;5044227;28;20581;-65
2023/06/28 15:55:56;;;;;;;4.13;1.50;;;;;;;22.70;54.56;101668.25;5045322;28;20041;-64
2023/06/28 15:58:21;;;;;;;;;;;;;;;22.71;54.55;101660.84;5044577;28;20230;-65
2023/06/28 16:00:48;;;;;;;5.68;1.80;;;;;;;22.71;54.46;101666.31;5037510;28;20403;-64
2023/06/28 16:03:15;;;;;;;5.65;1.70;;;;;;;22.63;55.00;101667.16;5043611;28;20518;-65
2023/06/28 16:05:40;;;;;;;3.33;1.52;;;;;;;22.46;55.43;101666.09;5031087;28;20376;-65
2023/06/28 16:08:06;;;;;;;3.80;1.50;;;;;;;22.33;55.91;101656.19;5039681;28;20031;-64
2023/06/28 16:10:32;;;;;;;3.80;1.30;;;;;;;22.25;55.96;101662.50;5052550;28;20041;-64
2023/06/28 16:12:57;;;;;;;4.75;1.30;;;;;;;22.30;56.89;101667.78;5043112;28;20122;-64
2023/06/28 16:15:23;;;;;;;3.45;1.20;;;;;;;22.26;57.32;101664.09;5045408;28;20040;-64
2023/06/28 16:17:48;;;;;;;4.80;1.20;;;;;;;22.19;57.62;101664.59;5043532;28;20514;-64
2023/06/28 16:20:14;;;;;;;;;;;;;;;22.15;58.17;101666.38;5040799;28;20478;-64
2023/06/28 16:22:40;;;;;;;4.78;1.35;;;;;;;22.18;58.05;101662.19;5027623;28;19920;-65
2023/06/28 16:25:06;;;;;;;3.63;1.33;;;;;;;22.17;58.01;101655.16;5037633;28;20132;-65
2023/06/28 16:27:32;;;;;;;3.28;1.20;;;;;;;22.18;58.76;101659.47;5043421;28;20051;-65
2023/06/28 16:29:57;;;;;;;6.35;1.50;;;;;;;22.16;57.57;101667.19;5038449;28;20488;-65
2023/06/28 16:32:23;;;;;;;4.75;1.33;;;;;;;22.16;57.33;101657.06;5040613;28;20044;-64
2023/06/28 16:34:49;;;;;;;7.88;1.52;;;;;;;22.17;57.31;101668.78;5043717;28;20036;-65
2023/06/28 16:37:17;;;;;;;5.72;1.60;;;;;;;22.17;57.63;101674.25;5042075;28;20032;-65
2023/06/28 16:39:43;;;;;;;5.05;1.25;;;;;;;22.17;57.84;101666.84;5038407;28;20044;-64
2023/06/28 16:42:09;;;;;;;3.83;1.52;;;;;;;22.15;58.09;101660.94;5032908;28;20035;-64
2023/06/28 16:44:34;;;;;;;3.90;1.20;;;;;;;22.14;58.10;101666.69;5040636;28;20179;-64
2023/06/28 16:47:01;;;;;;;3.55;1.27;;;;;;;22.14;57.54;101662.03;5037213;28;20025;-64
2023/06/28 16:49:27;;;;;;;3.17;1.23;;;;;;;22.12;56.49;101666.22;5034209;28;20488;-64
2023/06/28 16:51:53;;;;;;;4.57;1.55;;;;;;;22.12;56.61;101656.09;5037908;28;20075;-64
2023/06/28 16:54:21;;;;;;;4.90;1.83;;;;;;;22.13;56.50;101660.44;5041670;28;20035;-65
2023/06/28 16:56:47;;;;;;;1.92;1.08;;;;;;;22.12;57.83;101666.22;5043574;28;20102;-64
2023/06/28 16:59:13;;;;;;;4.90;1.63;;;;;;;22.28;57.82;101661.81;5041717;28;20048;-65
2023/06/28 17:01:38;;;;;;;2.65;1.15;;;;;;;22.21;58.20;101669.72;5045875;28;20032;-65
2023/06/28 17:04:04;;;;;;;4.80;1.30;;;;;;;22.18;58.36;101664.91;5047697;28;20055;-65
2023/06/28 17:06:30;;;;;;;3.35;1.02;;;;;;;22.13;58.53;101670.53;5034369;28;20049;-65
2023/06/28 17:08:55;;;;;;;4.45;1.25;;;;;;;22.11;58.91;101664.63;5023477;28;20033;-65
2023/06/28 17:11:22;;;;;;;3.05;1.40;;;;;;;22.10;59.51;101665.75;5019158;28;20199;-65
2023/06/28 17:13:48;;;;;;;3.88;1.30;;;;;;;22.12;58.75;101660.75;5024915;28;20561;-64
2023/06/28 17:16:14;;;;;;;7.13;1.48;;;;;;;22.18;58.34;101663.00;5018920;28;20041;-64
2023/06/28 17:18:39;;;;;;;5.43;1.52;;;;;;;22.13;58.54;101667.81;5021980;28;20150;-65
2023/06/28 17:21:05;;;;;;;2.80;1.08;;;;;;;22.08;58.17;101655.13;5023144;28;20042;-65
2023/06/28 17:23:30;;;;;;;;;;;;;;;22.09;57.12;101669.63;5027577;28;20126;-65
2023/06/28 17:25:56;;;;;;;5.13;1.20;;;;;;;22.03;57.36;101658.84;5026256;28;19976;-66
2023/06/28 17:28:23;;;;;;;;;;;;;;;22.00;58.05;101664.94;5008973;28;20034;-65
2023/06/28 17:30:50;;;;;;;6.93;1.42;;;;;;;22.03;58.53;101664.28;5016930;28;20364;-65
2023/06/28 17:33:17;;;;;;;3.92;1.52;;;;;;;22.01;58.99;101665.72;5017794;28;20033;-66
2023/06/28 17:35:42;;;;;;;4.45;1.42;;;;;;;21.94;59.13;101670.88;5020536;28;20061;-65
2023/06/28 17:38:08;;;;;;;;;;;;;;;21.90;59.45;101668.00;5027006;28;20060;-65
2023/06/28 17:40:34;;;;;;;3.88;1.40;;;;;;;21.90;58.85;101668.00;5023242;28;20394;-65
2023/06/28 17:42:59;;;;;;;;;;;;;;;21.89;59.41;101660.97;5022509;28;20494;-66
2023/06/28 17:45:26;;;;;;;5.22;1.40;;;;;;;21.84;60.02;101657.59;5017393;28;20310;-65
2023/06/28 17:47:53;;;;;;;4.95;1.50;;;;;;;21.82;60.00;101663.38;5022789;28;20030;-65
2023/06/28 17:50:22;;;;;;;4.45;1.50;;;;;;;21.80;60.22;101660.16;5019154;28;20033;-65
2023/06/28 17:52:48;;;;;;;4.05;1.38;;;;;;;21.84;59.98;101650.22;5019903;28;20040;-66
2023/06/28 17:55:13;;;;;;;3.05;1.55;;;;;;;21.86;59.03;101653.41;5024036;28;20041;-65
2023/06/28 17:57:39;;;;;;;;;;;;;;;21.87;57.87;101652.28;5023535;28;20029;-65
2023/06/28 18:00:05;;;;;;;2.80;0.90;;;;;;;21.85;58.44;101657.25;5024835;28;19929;-65
2023/06/28 18:02:31;;;;;;;3.08;1.15;;;;;;;21.82;58.71;101651.66;5030133;28;20071;-65
2023/06/28 18:04:57;;;;;;;2.80;1.30;;;;;;;21.83;58.87;101659.53;5029358;28;20029;-65
2023/06/28 18:07:23;;;;;;;;;;;;;;;21.80;59.14;101662.88;5030398;28;20100;-65
2023/06/28 18:09:48;;;;;;;4.28;1.20;;;;;;;21.79;59.84;101664.00;5026601;28;19959;-65
2023/06/28 18:12:14;;;;;;;;;;;;;;;21.87;59.21;101665.91;5023129;28;20036;-65
2023/06/28 18:14:40;;;;;;;4.30;1.48;;;;;;;21.88;58.89;101667.53;5021282;28;20710;-66
2023/06/28 18:17:07;;;;;;;2.13;1.15;;;;;;;21.87;58.53;101665.13;5026256;28;20030;-65
2023/06/28 18:19:32;;;;;;;5.40;1.58;;;;;;;21.82;59.39;101657.13;5025394;28;20119;-65
2023/06/28 18:21:58;;;;;;;4.03;1.25;;;;;;;21.81;59.53;101656.28;5032066;28;20044;-65
2023/06/28 18:24:24;;;;;;;;;;;;;;;21.81;59.40;101656.28;5017816;28;20061;-66
2023/06/28 18:26:50;;;;;;;5.40;1.40;;;;;;;21.78;59.71;101657.75;5022330;28;19920;-65
2023/06/28 18:29:16;;;;;;;2.40;1.75;;;;;;;21.78;60.11;101662.41;5019006;28;20831;-66
2023/06/28 18:31:42;;;;;;;4.43;1.15;;;;;;;21.74;60.53;101661.44;5013285;28;20084;-65
2023/06/28 18:34:08;;;;;;;3.17;1.10;;;;;;;21.71;61.04;101667.56;5024937;28;20443;-65
2023/06/28 18:36:34;;;;;;;3.03;1.67;;;;;;;21.71;60.33;101667.56;5013055;28;20035;-65
2023/06/28 18:39:00;;;;;;;5.95;1.30;;;;;;;21.70;60.57;101668.69;5018178;28;20469;-65
2023/06/28 18:41:25;;;;;;;4.18;1.90;;;;;;;21.70;60.14;101672.19;5015518;28;20034;-65
2023/06/28 18:43:55;;;;;;;2.88;1.45;;;;;;;21.68;59.62;101666.28;5012597;28;20037;-65
2023/06/28 18:46:21;;;;;;;2.58;1.40;;;;;;;21.67;59.53;101678.28;5012053;28;20369;-65
2023/06/28 18:48:47;;;;;;;3.58;1.52;;;;;;;21.66;59.91;101675.88;5017053;28;20789;-65
2023/06/28 18:51:12;;;;;;;4.28;1.58;;;;;;;21.69;59.71;101675.25;5016890;28;20042;-65
2023/06/28 18:53:38;;;;;;;3.92;1.10;;;;;;;21.65;59.89;101674.28;5005602;28;20067;-65
2023/06/28 18:56:04;;;;;;;5.28;1.50;;;;;;;21.64;59.99;101678.94;5022020;28;20152;-65
2023/06/28 18:58:33;;;;;;;7.32;1.45;;;;;;;21.70;59.62;101671.41;5025076;28;20116;-66
2023/06/28 19:00:59;;;;;;;4.65;1.63;;;;;;;21.69;59.35;101669.81;5023188;28;20069;-65
2023/06/28 19:03:28;;;;;;;5.38;1.80;;;;;;;21.63;59.85;101665.63;5018593;28;20034;-65
2023/06/28 19:05:54;;;;;;;4.47;1.42;;;;;;;21.59;60.64;101668.19;5024427;28;20038;-65
2023/06/28 19:08:20;;;;;;;5.85;2.08;;;;;;;21.60;60.94;101669.00;5021402;28;20087;-65
2023/06/28 19:10:48;;;;;;;4.72;1.48;;;;;;;21.60;60.27;101667.06;5016544;28;20059;-65
2023/06/28 19:13:15;;;;;;;10.05;1.70;;;;;;;21.52;60.32;101676.84;5014975;28;20049;-65
2023/06/28 19:15:40;;;;;;;4.15;1.33;;;;;;;21.46;60.40;101677.34;5020764;28;20037;-65
2023/06/28 19:18:06;;;;;;;6.10;1.70;;;;;;;21.47;59.88;101674.31;5020728;28;20117;-65
2023/06/28 19:20:33;;;;;;;5.57;1.67;;;;;;;21.51;60.00;101675.25;5019490;28;20036;-65
2023/06/28 19:22:59;;;;;;;7.55;1.50;;;;;;;21.47;60.38;101668.88;5018436;28;20044;-65
2023/06/28 19:25:24;;;;;;;;;;;;;;;21.45;60.68;101681.97;5017057;28;20471;-65
2023/06/28 19:27:50;;;;;;;3.70;1.77;;;;;;;21.44;60.57;101679.59;5019905;28;19923;-65
2023/06/28 19:30:15;;;;;;;4.57;1.52;;;;;;;21.49;60.32;101685.69;5022461;28;20031;-65
2023/06/28 19:32:41;;;;;;;3.85;1.40;;;;;;;21.39;60.59;101675.09;5020934;28;20041;-65
2023/06/28 19:35:07;;;;;;;6.43;1.58;;;;;;;21.44;59.95;101674.94;5022154;28;20049;-65
2023/06/28 19:37:33;;;;;;;6.57;2.13;;;;;;;21.49;59.33;101677.50;5022106;28;20029;-66
2023/06/28 19:39:58;;;;;;;4.75;1.95;;;;;;;21.48;59.33;101684.09;5020055;28;20045;-65
2023/06/28 19:42:24;;;;;;;6.30;1.90;;;;;;;21.41;59.77;101681.03;5015264;28;20040;-65
2023/06/28 19:44:50;;;;;;;3.95;1.50;;;;;;;21.38;60.33;101680.88;5012413;28;20087;-65
2023/06/28 19:47:16;;;;;;;4.82;1.77;;;;;;;21.36;60.58;101691.28;5022254;28;20057;-66
2023/06/28 19:49:41;;;;;;;5.93;1.90;;;;;;;21.36;60.55;101692.09;5020540;28;20421;-65
2023/06/28 19:52:07;;;;;;;2.53;1.42;;;;;;;21.38;60.80;101683.59;5016494;28;20125;-65
2023/06/28 19:54:33;;;;;;;;;;;;;;;21.35;60.78;101676.06;5020082;28;20474;-65
2023/06/28 19:56:58;;;;;;;8.18;1.80;;;;;;;21.26;60.92;101684.19;5023561;28;19916;-65
2023/06/28 19:59:24;;;;;;;8.75;2.35;;;;;;;21.29;60.60;101677.34;5018198;28;20065;-65
2023/06/28 20:01:50;;;;;;;;;;;;;;;21.16;60.63;101676.31;5022027;28;20037;-64
2023/06/28 20:04:16;;;;;;;6.50;2.17;;;;;;;21.12;60.56;101672.63;5018351;28;20007;-64
2023/06/28 20:06:41;;;;;;;;;;;;;;;21.06;60.21;101673.91;5016481;28;20045;-64
2023/06/28 20:09:07;;;;;;;2.85;1.50;;;;;;;21.01;59.98;101671.34;5018162;28;19921;-64
2023/06/28 20:11:33;;;;;;;4.32;1.67;;;;;;;20.94;60.09;101688.16;5022663;28;20036;-65
2023/06/28 20:14:00;;;;;;;3.20;1.77;;;;;;;20.84;60.43;101689.22;5022643;28;20099;-64
2023/06/28 20:16:25;;;;;;;6.30;2.10;;;;;;;20.93;60.09;101695.50;5024107;28;20069;-65
2023/06/28 20:18:51;;;;;;;2.97;1.40;;;;;;;21.38;58.88;101692.56;5021918;28;20065;-64
2023/06/28 20:21:17;;;;;;;3.40;1.50;;;;;;;21.69;58.45;101699.78;5020162;28;20045;-65
2023/06/28 20:23:42;;;;;;;4.65;1.45;;;;;;;21.85;58.00;101700.88;5014995;28;20048;-65
2023/06/28 20:26:08;;;;;;;3.30;1.42;;;;;;;21.98;58.08;101704.56;5015754;28;20033;-65
2023/06/28 20:28:39;;;;;;;4.57;1.58;;;;;;;22.04;57.90;101706.81;5020290;28;20024;-65
2023/06/28 20:31:05;;;;;;;2.08;1.30;;;;;;;22.11;57.61;101703.63;5018549;28;20029;-65
2023/06/28 20:33:31;;;;;;;3.92;1.60;;;;;;;22.13;57.20;101704.09;5016200;28;20099;-65
2023/06/28 20:35:57;;;;;;;4.13;1.77;;;;;;;22.17;57.70;101709.69;5016973;28;20093;-64
2023/06/28 20:38:25;;;;;;;3.05;1.83;;;;;;;22.12;57.41;101710.66;5023857;28;20034;-65
2023/06/28 20:40:53;;;;;;;5.43;2.03;;;;;;;22.18;57.43;101714.03;5019079;28;20104;-64
2023/06/28 20:43:23;;;;;;;5.03;1.70;;;;;;;22.22;57.29;101709.53;5022573;28;20037;-64
2023/06/28 20:45:49;;;;;;;4.03;1.30;;;;;;;22.23;57.23;101711.13;5018661;28;20198;-65
2023/06/28 20:48:18;;;;;;;2.40;1.42;;;;;;;22.23;57.13;101706.47;5016607;28;20147;-65
2023/06/28 20:50:44;;;;;;;4.32;1.42;;;;;;;22.26;57.28;101707.75;5021376;28;20034;-65
2023/06/28 20:53:10;;;;;;;3.88;2.20;;;;;;;22.20;57.29;101706.31;5024470;28;20038;-64
2023/06/28 20:55:37;;;;;;;2.85;1.60;;;;;;;22.26;57.45;101699.56;5019371;28;20511;-64
2023/06/28 20:58:02;;;;;;;4.45;2.00;;;;;;;22.26;57.54;101702.28;5024703;28;20029;-63
2023/06/28 21:00:28;;;;;;;3.58;1.50;;;;;;;22.25;57.63;101704.22;5020499;28;20041;-64
2023/06/28 21:02:54;;;;;;;4.80;1.63;;;;;;;22.24;57.64;101693.63;5015906;28;20061;-63
2023/06/28 21:05:20;;;;;;;6.95;1.98;;;;;;;22.25;57.58;101703.41;5021615;28;20772;-63
2023/06/28 21:07:46;;;;;;;3.88;1.33;;;;;;;22.24;57.79;101702.63;5028983;28;20040;-65
2023/06/28 21:10:11;;;;;;;2.90;1.42;;;;;;;22.24;57.32;101701.81;5018578;28;20041;-63
2023/06/28 21:12:38;;;;;;;4.13;1.40;;;;;;;22.25;57.50;101703.41;5024699;28;20040;-63
2023/06/28 21:15:04;;;;;;;2.88;1.10;;;;;;;22.25;57.87;101692.50;5017477;28;20672;-64
2023/06/28 21:17:30;;;;;;;5.55;1.80;;;;;;;22.25;57.69;101695.22;5022550;28;20041;-63
2023/06/28 21:19:57;;;;;;;3.60;1.48;;;;;;;22.25;57.71;101697.97;5015299;28;20026;-64
2023/06/28 21:22:22;;;;;;;3.55;1.52;;;;;;;22.25;57.80;101695.22;5018889;28;20033;-63
2023/06/28 21:24:48;;;;;;;3.67;1.75;;;;;;;22.25;58.17;101693.31;5021428;28;20114;-64
2023/06/28 21:27:14;;;;;;;4.85;1.58;;;;;;;22.26;57.78;101691.38;5023962;28;20030;-64
2023/06/28 21:29:40;;;;;;;2.70;1.38;;;;;;;22.25;57.99;101692.50;5021796;28;20041;-63
2023/06/28 21:32:06;;;;;;;3.38;1.60;;;;;;;22.25;57.84;101696.03;5023742;28;20032;-63
2023/06/28 21:34:32;;;;;;;5.82;1.50;;;;;;;22.25;57.79;101693.31;5026056;28;20040;-63
2023/06/28 21:37:00;;;;;;;;;;;;;;;22.26;58.01;101689.44;5021140;28;20038;-65
2023/06/28 21:39:26;;;;;;;2.17;1.30;;;;;;;22.26;58.23;101688.66;5013513;28;19918;-63
2023/06/28 21:41:51;;;;;;;;;;;;;;;22.26;57.99;101691.38;5020280;28;20029;-62
2023/06/28 21:44:17;;;;;;;3.25;1.85;;;;;;;22.27;57.78;101693.78;5020985;28;19917;-64
2023/06/28 21:46:43;;;;;;;3.92;1.63;;;;;;;22.28;57.90;101691.84;5015689;28;20070;-63
2023/06/28 21:49:08;;;;;;;2.30;1.33;;;;;;;22.27;57.93;101691.03;5021656;28;20037;-63
2023/06/28 21:51:34;;;;;;;2.35;1.50;;;;;;;22.27;58.07;101692.97;5024467;28;20036;-63
2023/06/28 21:54:00;;;;;;;2.70;1.40;;;;;;;22.27;58.01;101696.50;5023862;28;20056;-62
2023/06/28 21:56:26;;;;;;;3.30;1.45;;;;;;;22.28;58.27;101689.13;5019423;28;20040;-64
2023/06/28 21:58:52;;;;;;;2.45;1.17;;;;;;;22.28;57.91;101689.91;5021619;28;20030;-64
2023/06/28 22:01:18;;;;;;;5.32;1.80;;;;;;;22.28;58.05;101683.66;5019928;28;20040;-64
2023/06/28 22:03:43;;;;;;;2.40;1.35;;;;;;;22.29;58.14;101693.47;5017569;28;20038;-63
2023/06/28 22:06:09;;;;;;;2.25;1.25;;;;;;;22.30;58.10;101682.22;5024400;28;20026;-65
2023/06/28 22:08:35;;;;;;;3.60;1.60;;;;;;;22.30;58.10;101684.16;5019221;28;20531;-63
2023/06/28 22:11:01;;;;;;;;;;;;;;;22.30;58.16;101684.16;5023346;28;20094;-65
2023/06/28 22:13:27;;;;;;;2.70;1.52;;;;;;;22.30;57.83;101679.50;5018835;28;19918;-63
2023/06/28 22:15:52;;;;;;;4.15;1.60;;;;;;;22.31;57.73;101680.28;5010947;28;20037;-64
2023/06/28 22:18:19;;;;;;;;;;;;;;;22.32;57.86;101682.69;5017725;28;20037;-63
2023/06/28 22:20:47;;;;;;;4.20;1.55;;;;;;;22.32;58.33;101679.97;5021550;28;19917;-64
2023/06/28 22:23:13;;;;;;;3.15;1.10;;;;;;;22.33;58.17;101683.47;5015776;28;20286;-64
2023/06/28 22:25:40;;;;;;;3.10;1.42;;;;;;;22.32;58.14;101681.88;5012900;28;20571;-63
2023/06/28 22:28:06;;;;;;;6.43;1.20;;;;;;;22.32;58.10;101677.22;5020908;28;20043;-64
2023/06/28 22:30:31;;;;;;;2.88;1.40;;;;;;;22.33;58.18;101678.03;5026397;28;20033;-65
2023/06/28 22:32:57;;;;;;;5.32;1.88;;;;;;;22.34;58.30;101685.09;5020528;28;20842;-63
2023/06/28 22:35:24;;;;;;;2.95;1.42;;;;;;;22.32;57.95;101676.44;5022854;28;20037;-64
2023/06/28 22:37:50;;;;;;;2.60;1.40;;;;;;;22.33;58.29;101684.28;5026947;28;20030;-64
2023/06/28 22:40:16;;;;;;;5.32;1.27;;;;;;;22.32;58.13;101679.16;5006267;28;20567;-64
2023/06/28 22:42:42;;;;;;;4.53;1.30;;;;;;;22.32;58.26;101676.44;5023396;28;20087;-64
2023/06/28 22:45:08;;;;;;;3.05;1.20;;;;;;;22.33;58.38;101678.81;5022762;28;20072;-63
2023/06/28 22:47:36;;;;;;;4.63;1.30;;;;;;;22.31;58.16;101658.47;5023840;28;20037;-64
2023/06/28 22:50:02;;;;;;;3.92;1.40;;;;;;;22.25;58.58;101659.75;5028241;28;20064;-64
2023/06/28 22:52:27;;;;;;;2.63;1.45;;;;;;;22.28;58.37;101657.16;5020363;28;20064;-64
2023/06/28 22:54:53;;;;;;;7.25;1.65;;;;;;;22.27;58.33;101655.56;5021971;28;20495;-63
2023/06/28 22:57:19;;;;;;;3.72;1.65;;;;;;;22.29;58.36;101649.81;5024971;28;20488;-63
2023/06/28 22:59:44;;;;;;;;;;;;;;;22.30;58.12;101652.22;5029063;28;20112;-63
2023/06/28 23:02:10;;;;;;;6.80;1.40;;;;;;;22.30;58.20;101646.75;5024974;28;19917;-63
2023/06/28 23:04:37;;;;;;;2.92;1.38;;;;;;;22.31;58.19;101658.47;5019703;28;20033;-63
2023/06/28 23:07:03;;;;;;;4.65;1.33;;;;;;;22.32;58.56;101655.41;5027014;28;20510;-63
2023/06/28 23:09:30;;;;;;;5.95;1.88;;;;;;;22.33;58.29;101656.19;5024191;28;21116;-63
2023/06/28 23:11:57;;;;;;;4.38;1.63;;;;;;;22.32;58.40;101655.41;5024487;28;20500;-62
2023/06/28 23:14:25;;;;;;;5.43;1.52;;;;;;;22.31;58.50;101648.34;5028135;28;20470;-63
2023/06/28 23:16:53;;;;;;;3.88;1.10;;;;;;;22.32;58.47;101655.41;5023173;28;20025;-63
2023/06/28 23:19:19;;;;;;;3.72;1.52;;;;;;;22.33;58.59;101653.47;5021147;28;20033;-63
2023/06/28 23:21:46;;;;;;;4.60;1.70;;;;;;;22.34;58.56;101652.34;5021706;28;20041;-63
2023/06/28 23:24:12;;;;;;;4.00;1.48;;;;;;;22.34;58.62;101658.59;5022778;28;20041;-63
2023/06/28 23:26:39;;;;;;;;;;;;;;;22.34;58.34;101664.06;5025445;28;20513;-64
2023/06/28 23:29:05;;;;;;;6.97;1.58;;;;;;;22.34;58.64;101663.25;5020318;28;19917;-63
2023/06/28 23:31:31;;;;;;;3.83;1.40;;;;;;;22.34;58.55;101658.59;5027347;28;20090;-63
2023/06/28 23:33:59;;;;;;;4.53;1.42;;;;;;;22.34;58.67;101655.06;5028068;28;20048;-63
2023/06/28 23:36:25;;;;;;;2.00;1.20;;;;;;;22.34;58.37;101647.69;5026877;28;20039;-64
2023/06/28 23:38:52;;;;;;;1.73;1.20;;;;;;;22.38;58.65;101647.84;5019783;28;20548;-63
2023/06/28 23:41:18;;;;;;;5.78;1.95;;;;;;;22.36;58.16;101655.56;5022804;28;20037;-62
2023/06/28 23:43:43;;;;;;;4.40;1.40;;;;;;;22.36;58.67;101649.31;5022475;28;20052;-63
2023/06/28 23:46:10;;;;;;;2.50;1.35;;;;;;;22.35;58.40;101648.47;5021563;28;20064;-63
2023/06/28 23:48:36;;;;;;;2.45;1.33;;;;;;;22.36;58.24;101643.84;5038952;28;20067;-63
2023/06/28 23:51:04;;;;;;;6.70;1.38;;;;;;;22.34;58.11;101647.69;5026767;28;20504;-64
2023/06/28 23:53:38;;;;;;;3.40;1.23;;;;;;;22.35;58.33;101645.75;5025521;28;20026;-63
2023/06/28 23:56:10;;;;;;;5.57;1.30;;;;;;;22.35;58.53;101648.47;5020654;28;20061;-63
2023/06/28 23:58:39;;;;;;;2.90;1.60;;;;;;;22.36;58.39;101649.31;5025833;28;20029;-63
